Tatalina Lrrs Airport
PATL : rendu visible

Aérodrome :











RETROUVEZ-NOUS SUR...

 
LOGIN :

S'inscrire | Disclaimer

   EN    FR    IT 

 









Légende :    VFR   VFR Marginal   IFR   IFR Intensif   IFR Très Intensif
Visi : 
Plafond : 
>= 8 km
>= 3000ft
5 à 8 km
1000 à 3000 ft
1500m à 5 km
500 à 1000 ft
800 à 1500m
200 à 500 ft
< 800m
< 200 ft
Symboles :   Orages  Brouillard  Fortes neiges  Fortes précipitations  Vent > 20 kt






- Altitude de l'aérodrome : 964 ft
- Code IATA : TLJ


PATL - Tatalina Lrrs

DERNIER METAR :
  • 061155Z AUTO VRB02KT 10SM CLR 09/07 A2992 RMK AO2 SLP131 60001 70020 T00930065 10118 20090 57005

METARs EXPIRÉS :
  • 061055Z AUTO VRB02KT 10SM FEW031 BKN080 10/07 A2992 RMK AO2 SLP135 T01000066
  • 060955Z AUTO VRB03KT 10SM FEW055 BKN095 10/06 A2992 RMK AO2 RAB0903E0911SHRAB0911E0923 SLP136 T01010062
  • 060925Z AUTO VRB03KT 10SM BKN055 BKN110 10/07 A2993 RMK AO2 SLP136

Prévision TAF périmée.
FIR PAZA / Amérique du Nord



MET'MAP, la Météo Aéronautique d'un coup d'oeil ! - Copyright ORBIFLY Décembre 2007 - Disclaimer

ORBIFLY MET'MAP TEAM :

Programmation & Développement : Alexandra Zaïnal
Sur une idée originale de : Baudouin d'Aumeries
Assistance à la programmation : Marc-Olivier Méhu
Soutien technique & logistique : Manuel Goepfert

Contact : metmap@orbifly.com




SOURCES & CREDITS :

   NOAA       Earth
Advisory